sensor_id;sensor_type;location;lat;lon;timestamp;pressure;altitude;pressure_sealevel;temperature;humidity
64340;BME280;63709;53.258;-8.814;2023-06-22T00:00:53;101978.25;;;16.74;100.00
64340;BME280;63709;53.258;-8.814;2023-06-22T00:03:22;101980.19;;;16.72;100.00
64340;BME280;63709;53.258;-8.814;2023-06-22T00:05:48;101984.00;;;16.80;100.00
64340;BME280;63709;53.258;-8.814;2023-06-22T00:08:16;101967.47;;;16.62;100.00
64340;BME280;63709;53.258;-8.814;2023-06-22T00:10:43;101984.38;;;16.76;100.00
64340;BME280;63709;53.258;-8.814;2023-06-22T00:13:09;101987.94;;;16.65;100.00
64340;BME280;63709;53.258;-8.814;2023-06-22T00:15:38;101958.81;;;16.48;100.00
64340;BME280;63709;53.258;-8.814;2023-06-22T00:18:09;101985.53;;;16.51;100.00
64340;BME280;63709;53.258;-8.814;2023-06-22T00:20:36;101983.69;;;16.51;100.00
64340;BME280;63709;53.258;-8.814;2023-06-22T00:23:06;101988.47;;;16.48;100.00
64340;BME280;63709;53.258;-8.814;2023-06-22T00:25:40;101983.19;;;16.35;100.00
64340;BME280;63709;53.258;-8.814;2023-06-22T00:28:07;101982.34;;;16.23;100.00
64340;BME280;63709;53.258;-8.814;2023-06-22T00:30:34;101986.41;;;16.29;100.00
64340;BME280;63709;53.258;-8.814;2023-06-22T00:33:00;101980.63;;;16.22;100.00
64340;BME280;63709;53.258;-8.814;2023-06-22T00:35:27;101987.13;;;16.19;100.00
64340;BME280;63709;53.258;-8.814;2023-06-22T00:37:59;101990.44;;;16.12;100.00
64340;BME280;63709;53.258;-8.814;2023-06-22T00:40:31;101975.88;;;16.03;100.00
64340;BME280;63709;53.258;-8.814;2023-06-22T00:43:09;101988.81;;;15.98;100.00
64340;BME280;63709;53.258;-8.814;2023-06-22T00:45:34;101968.50;;;16.05;100.00
64340;BME280;63709;53.258;-8.814;2023-06-22T00:48:00;101985.03;;;16.12;100.00
64340;BME280;63709;53.258;-8.814;2023-06-22T00:50:30;101974.16;;;16.02;100.00
64340;BME280;63709;53.258;-8.814;2023-06-22T00:53:06;101980.41;;;16.03;100.00
64340;BME280;63709;53.258;-8.814;2023-06-22T00:55:42;101989.94;;;15.95;100.00
64340;BME280;63709;53.258;-8.814;2023-06-22T00:58:13;101982.97;;;15.93;100.00
64340;BME280;63709;53.258;-8.814;2023-06-22T01:00:40;101988.72;;;15.88;100.00
64340;BME280;63709;53.258;-8.814;2023-06-22T01:03:06;101991.50;;;15.87;100.00
64340;BME280;63709;53.258;-8.814;2023-06-22T01:05:37;102003.25;;;15.86;100.00
64340;BME280;63709;53.258;-8.814;2023-06-22T01:11:17;102001.56;;;15.85;100.00
64340;BME280;63709;53.258;-8.814;2023-06-22T01:16:30;102007.44;;;15.90;100.00
64340;BME280;63709;53.258;-8.814;2023-06-22T01:19:01;102006.81;;;15.86;100.00
64340;BME280;63709;53.258;-8.814;2023-06-22T01:21:33;102008.66;;;15.97;100.00
64340;BME280;63709;53.258;-8.814;2023-06-22T01:24:14;102013.41;;;15.82;100.00
64340;BME280;63709;53.258;-8.814;2023-06-22T01:26:53;102011.72;;;15.92;100.00
64340;BME280;63709;53.258;-8.814;2023-06-22T01:29:21;102015.50;;;15.90;100.00
64340;BME280;63709;53.258;-8.814;2023-06-22T01:31:50;102012.81;;;15.90;100.00
64340;BME280;63709;53.258;-8.814;2023-06-22T01:34:17;102011.09;;;15.89;100.00
64340;BME280;63709;53.258;-8.814;2023-06-22T01:36:44;102007.44;;;15.90;100.00
64340;BME280;63709;53.258;-8.814;2023-06-22T01:39:11;101992.00;;;15.81;100.00
64340;BME280;63709;53.258;-8.814;2023-06-22T01:41:38;102009.16;;;15.91;100.00
64340;BME280;63709;53.258;-8.814;2023-06-22T01:44:08;102004.34;;;15.83;100.00
64340;BME280;63709;53.258;-8.814;2023-06-22T01:46:35;102003.25;;;15.86;100.00
64340;BME280;63709;53.258;-8.814;2023-06-22T01:49:05;102007.66;;;15.76;100.00
64340;BME280;63709;53.258;-8.814;2023-06-22T01:51:31;102013.78;;;15.78;100.00
64340;BME280;63709;53.258;-8.814;2023-06-22T01:53:58;102011.06;;;15.66;100.00
64340;BME280;63709;53.258;-8.814;2023-06-22T01:56:26;102000.25;;;15.55;100.00
64340;BME280;63709;53.258;-8.814;2023-06-22T01:59:14;102012.00;;;15.54;100.00
64340;BME280;63709;53.258;-8.814;2023-06-22T02:01:55;102013.22;;;15.50;100.00
64340;BME280;63709;53.258;-8.814;2023-06-22T02:04:29;102011.47;;;15.49;100.00
64340;BME280;63709;53.258;-8.814;2023-06-22T02:07:00;102015.41;;;15.56;100.00
64340;BME280;63709;53.258;-8.814;2023-06-22T02:09:34;102021.50;;;15.47;100.00
64340;BME280;63709;53.258;-8.814;2023-06-22T02:12:02;102018.66;;;15.37;100.00
64340;BME280;63709;53.258;-8.814;2023-06-22T02:14:29;102021.09;;;15.40;100.00
64340;BME280;63709;53.258;-8.814;2023-06-22T02:16:56;102002.91;;;15.20;100.00
64340;BME280;63709;53.258;-8.814;2023-06-22T02:19:30;102024.84;;;15.27;100.00
64340;BME280;63709;53.258;-8.814;2023-06-22T02:21:58;102011.03;;;15.31;100.00
64340;BME280;63709;53.258;-8.814;2023-06-22T02:24:27;102022.09;;;15.39;100.00
64340;BME280;63709;53.258;-8.814;2023-06-22T02:26:52;102021.56;;;15.34;100.00
64340;BME280;63709;53.258;-8.814;2023-06-22T02:29:19;102014.94;;;15.27;100.00
64340;BME280;63709;53.258;-8.814;2023-06-22T02:31:45;102012.16;;;15.29;100.00
64340;BME280;63709;53.258;-8.814;2023-06-22T02:34:11;102023.31;;;15.35;100.00
64340;BME280;63709;53.258;-8.814;2023-06-22T02:36:42;102009.91;;;15.22;100.00
64340;BME280;63709;53.258;-8.814;2023-06-22T02:39:20;102021.94;;;15.30;100.00
64340;BME280;63709;53.258;-8.814;2023-06-22T02:41:49;102028.16;;;15.30;100.00
64340;BME280;63709;53.258;-8.814;2023-06-22T02:44:15;102023.34;;;15.22;100.00
64340;BME280;63709;53.258;-8.814;2023-06-22T02:46:41;102027.56;;;15.03;100.00
64340;BME280;63709;53.258;-8.814;2023-06-22T02:49:07;102027.88;;;15.22;100.00
64340;BME280;63709;53.258;-8.814;2023-06-22T02:51:33;102018.75;;;15.24;100.00
64340;BME280;63709;53.258;-8.814;2023-06-22T02:53:59;102018.38;;;15.05;100.00
64340;BME280;63709;53.258;-8.814;2023-06-22T02:56:26;102010.09;;;15.08;100.00
64340;BME280;63709;53.258;-8.814;2023-06-22T02:58:52;102005.09;;;15.15;100.00
64340;BME280;63709;53.258;-8.814;2023-06-22T03:01:18;102021.59;;;15.10;100.00
64340;BME280;63709;53.258;-8.814;2023-06-22T03:03:49;102016.22;;;15.10;100.00
64340;BME280;63709;53.258;-8.814;2023-06-22T03:06:15;102009.47;;;15.05;100.00
64340;BME280;63709;53.258;-8.814;2023-06-22T03:08:41;102019.59;;;15.01;100.00
64340;BME280;63709;53.258;-8.814;2023-06-22T03:11:07;102014.91;;;14.92;100.00
64340;BME280;63709;53.258;-8.814;2023-06-22T03:13:33;101998.06;;;14.77;100.00
64340;BME280;63709;53.258;-8.814;2023-06-22T03:15:59;102005.16;;;14.78;100.00
64340;BME280;63709;53.258;-8.814;2023-06-22T03:18:24;102008.59;;;14.80;100.00
64340;BME280;63709;53.258;-8.814;2023-06-22T03:20:58;102002.41;;;14.67;100.00
64340;BME280;63709;53.258;-8.814;2023-06-22T03:23:24;102000.13;;;14.73;100.00
64340;BME280;63709;53.258;-8.814;2023-06-22T03:25:50;102010.66;;;14.76;100.00
64340;BME280;63709;53.258;-8.814;2023-06-22T03:28:15;102015.69;;;14.81;100.00
64340;BME280;63709;53.258;-8.814;2023-06-22T03:30:41;102014.09;;;14.79;100.00
64340;BME280;63709;53.258;-8.814;2023-06-22T03:33:09;102005.09;;;14.67;100.00
64340;BME280;63709;53.258;-8.814;2023-06-22T03:35:34;102009.50;;;14.68;100.00
64340;BME280;63709;53.258;-8.814;2023-06-22T03:38:02;102020.16;;;14.69;100.00
64340;BME280;63709;53.258;-8.814;2023-06-22T03:40:27;102021.66;;;14.61;100.00
64340;BME280;63709;53.258;-8.814;2023-06-22T03:42:53;102015.44;;;14.60;100.00
64340;BME280;63709;53.258;-8.814;2023-06-22T03:45:18;102016.41;;;14.46;100.00
64340;BME280;63709;53.258;-8.814;2023-06-22T03:47:45;102016.75;;;14.55;100.00
64340;BME280;63709;53.258;-8.814;2023-06-22T03:50:12;102012.53;;;14.63;100.00
64340;BME280;63709;53.258;-8.814;2023-06-22T03:52:37;102003.16;;;14.69;100.00
64340;BME280;63709;53.258;-8.814;2023-06-22T03:55:04;102006.78;;;14.81;100.00
64340;BME280;63709;53.258;-8.814;2023-06-22T03:57:30;102017.06;;;14.87;100.00
64340;BME280;63709;53.258;-8.814;2023-06-22T03:59:57;102008.94;;;14.75;100.00
64340;BME280;63709;53.258;-8.814;2023-06-22T04:02:30;102018.59;;;14.78;100.00
64340;BME280;63709;53.258;-8.814;2023-06-22T04:04:56;102017.63;;;14.79;100.00
64340;BME280;63709;53.258;-8.814;2023-06-22T04:07:21;102014.09;;;14.79;100.00
64340;BME280;63709;53.258;-8.814;2023-06-22T04:09:47;102014.00;;;14.80;100.00
64340;BME280;63709;53.258;-8.814;2023-06-22T04:12:13;102015.19;;;14.76;100.00
64340;BME280;63709;53.258;-8.814;2023-06-22T04:14:39;102006.72;;;14.69;100.00
64340;BME280;63709;53.258;-8.814;2023-06-22T04:17:05;101998.09;;;14.64;100.00
64340;BME280;63709;53.258;-8.814;2023-06-22T04:19:31;102010.66;;;14.76;100.00
64340;BME280;63709;53.258;-8.814;2023-06-22T04:21:57;102012.81;;;14.71;100.00
64340;BME280;63709;53.258;-8.814;2023-06-22T04:24:23;102012.81;;;14.71;100.00
64340;BME280;63709;53.258;-8.814;2023-06-22T04:26:49;102008.75;;;14.66;100.00
64340;BME280;63709;53.258;-8.814;2023-06-22T04:29:21;101996.09;;;14.55;100.00
64340;BME280;63709;53.258;-8.814;2023-06-22T04:31:58;102013.16;;;14.67;100.00
64340;BME280;63709;53.258;-8.814;2023-06-22T04:34:34;102019.22;;;14.58;100.00
64340;BME280;63709;53.258;-8.814;2023-06-22T04:36:59;102002.84;;;14.61;100.00
64340;BME280;63709;53.258;-8.814;2023-06-22T04:39:26;102021.44;;;14.64;100.00
64340;BME280;63709;53.258;-8.814;2023-06-22T04:41:52;102024.31;;;14.73;100.00
64340;BME280;63709;53.258;-8.814;2023-06-22T04:44:27;102016.91;;;14.64;100.00
64340;BME280;63709;53.258;-8.814;2023-06-22T04:46:55;102024.25;;;14.62;100.00
64340;BME280;63709;53.258;-8.814;2023-06-22T04:49:29;102020.81;;;14.60;100.00
64340;BME280;63709;53.258;-8.814;2023-06-22T04:51:59;102018.13;;;14.60;100.00
64340;BME280;63709;53.258;-8.814;2023-06-22T04:54:25;102027.22;;;14.70;100.00
64340;BME280;63709;53.258;-8.814;2023-06-22T04:56:52;102022.28;;;14.64;100.00
64340;BME280;63709;53.258;-8.814;2023-06-22T04:59:23;102014.22;;;14.64;100.00
64340;BME280;63709;53.258;-8.814;2023-06-22T05:01:59;102027.66;;;14.77;100.00
64340;BME280;63709;53.258;-8.814;2023-06-22T05:04:26;102028.69;;;14.87;100.00
64340;BME280;63709;53.258;-8.814;2023-06-22T05:06:54;102029.56;;;14.88;100.00
64340;BME280;63709;53.258;-8.814;2023-06-22T05:09:21;102024.41;;;14.85;100.00
64340;BME280;63709;53.258;-8.814;2023-06-22T05:11:50;102031.03;;;14.92;100.00
64340;BME280;63709;53.258;-8.814;2023-06-22T05:14:16;102028.84;;;14.97;100.00
64340;BME280;63709;53.258;-8.814;2023-06-22T05:16:43;102008.91;;;14.88;100.00
64340;BME280;63709;53.258;-8.814;2023-06-22T05:19:09;102038.72;;;15.09;100.00
64340;BME280;63709;53.258;-8.814;2023-06-22T05:21:35;102028.47;;;15.14;100.00
64340;BME280;63709;53.258;-8.814;2023-06-22T05:24:00;102032.63;;;15.18;100.00
64340;BME280;63709;53.258;-8.814;2023-06-22T05:26:33;102041.91;;;15.14;100.00
64340;BME280;63709;53.258;-8.814;2023-06-22T05:29:04;102037.66;;;15.23;100.00
64340;BME280;63709;53.258;-8.814;2023-06-22T05:31:35;102041.50;;;15.32;100.00
64340;BME280;63709;53.258;-8.814;2023-06-22T05:34:01;102039.81;;;15.42;100.00
64340;BME280;63709;53.258;-8.814;2023-06-22T05:36:27;102051.38;;;15.55;100.00
64340;BME280;63709;53.258;-8.814;2023-06-22T05:38:53;102045.59;;;15.48;100.00
64340;BME280;63709;53.258;-8.814;2023-06-22T05:41:19;102031.66;;;15.43;100.00
64340;BME280;63709;53.258;-8.814;2023-06-22T05:43:45;102047.59;;;15.58;100.00
64340;BME280;63709;53.258;-8.814;2023-06-22T05:46:10;102043.38;;;15.66;100.00
64340;BME280;63709;53.258;-8.814;2023-06-22T05:48:37;102050.09;;;15.72;100.00
64340;BME280;63709;53.258;-8.814;2023-06-22T05:51:02;102057.13;;;15.86;100.00
64340;BME280;63709;53.258;-8.814;2023-06-22T05:53:29;102062.50;;;15.86;100.00
64340;BME280;63709;53.258;-8.814;2023-06-22T05:55:56;102056.16;;;15.98;100.00
64340;BME280;63709;53.258;-8.814;2023-06-22T05:58:21;102057.28;;;15.95;100.00
64340;BME280;63709;53.258;-8.814;2023-06-22T06:00:50;102043.66;;;15.86;100.00
64340;BME280;63709;53.258;-8.814;2023-06-22T06:03:16;102053.13;;;16.14;100.00
64340;BME280;63709;53.258;-8.814;2023-06-22T06:05:42;102054.00;;;16.37;100.00
64340;BME280;63709;53.258;-8.814;2023-06-22T06:08:09;102052.06;;;16.39;100.00
64340;BME280;63709;53.258;-8.814;2023-06-22T06:10:36;102058.78;;;16.56;100.00
64340;BME280;63709;53.258;-8.814;2023-06-22T06:13:02;102055.81;;;16.70;100.00
64340;BME280;63709;53.258;-8.814;2023-06-22T06:15:30;102056.81;;;16.69;100.00
64340;BME280;63709;53.258;-8.814;2023-06-22T06:17:57;102059.00;;;16.64;100.00
64340;BME280;63709;53.258;-8.814;2023-06-22T06:20:24;102056.81;;;16.80;100.00
64340;BME280;63709;53.258;-8.814;2023-06-22T06:22:50;102061.09;;;16.83;100.00
64340;BME280;63709;53.258;-8.814;2023-06-22T06:25:16;102055.81;;;16.92;100.00
64340;BME280;63709;53.258;-8.814;2023-06-22T06:27:43;102042.94;;;16.96;100.00
64340;BME280;63709;53.258;-8.814;2023-06-22T06:30:10;102038.16;;;16.88;100.00
64340;BME280;63709;53.258;-8.814;2023-06-22T06:32:39;102044.59;;;17.08;100.00
64340;BME280;63709;53.258;-8.814;2023-06-22T06:35:07;102044.22;;;17.13;100.00
64340;BME280;63709;53.258;-8.814;2023-06-22T06:37:37;102040.31;;;17.17;100.00
64340;BME280;63709;53.258;-8.814;2023-06-22T06:40:05;102034.56;;;17.31;100.00
64340;BME280;63709;53.258;-8.814;2023-06-22T06:42:34;102040.28;;;17.49;100.00
64340;BME280;63709;53.258;-8.814;2023-06-22T06:44:59;102040.94;;;17.62;100.00
64340;BME280;63709;53.258;-8.814;2023-06-22T06:47:26;102041.84;;;17.84;100.00
64340;BME280;63709;53.258;-8.814;2023-06-22T06:49:52;102052.84;;;17.92;100.00
64340;BME280;63709;53.258;-8.814;2023-06-22T06:52:20;102048.53;;;18.10;100.00
64340;BME280;63709;53.258;-8.814;2023-06-22T06:54:46;102047.03;;;18.27;100.00
64340;BME280;63709;53.258;-8.814;2023-06-22T06:57:12;102056.91;;;18.28;100.00
64340;BME280;63709;53.258;-8.814;2023-06-22T06:59:39;102044.06;;;18.30;100.00
64340;BME280;63709;53.258;-8.814;2023-06-22T07:02:09;102051.69;;;18.46;100.00
64340;BME280;63709;53.258;-8.814;2023-06-22T07:04:35;102036.78;;;18.52;100.00
64340;BME280;63709;53.258;-8.814;2023-06-22T07:07:01;102050.97;;;18.75;100.00
64340;BME280;63709;53.258;-8.814;2023-06-22T07:09:33;102047.59;;;18.92;100.00
64340;BME280;63709;53.258;-8.814;2023-06-22T07:11:59;102034.66;;;18.96;100.00
64340;BME280;63709;53.258;-8.814;2023-06-22T07:14:25;102054.91;;;19.30;100.00
64340;BME280;63709;53.258;-8.814;2023-06-22T07:16:51;102049.78;;;19.47;100.00
64340;BME280;63709;53.258;-8.814;2023-06-22T07:19:24;102047.19;;;19.45;100.00
64340;BME280;63709;53.258;-8.814;2023-06-22T07:21:51;102053.59;;;19.54;100.00
64340;BME280;63709;53.258;-8.814;2023-06-22T07:24:16;102040.66;;;19.67;100.00
64340;BME280;63709;53.258;-8.814;2023-06-22T07:26:42;102050.09;;;19.73;100.00
64340;BME280;63709;53.258;-8.814;2023-06-22T07:29:11;102048.03;;;19.94;100.00
64340;BME280;63709;53.258;-8.814;2023-06-22T07:31:38;102039.66;;;19.78;100.00
64340;BME280;63709;53.258;-8.814;2023-06-22T07:34:05;102023.66;;;19.85;100.00
64340;BME280;63709;53.258;-8.814;2023-06-22T07:36:31;102040.88;;;20.03;100.00
64340;BME280;63709;53.258;-8.814;2023-06-22T07:38:57;102051.97;;;20.19;100.00
64340;BME280;63709;53.258;-8.814;2023-06-22T07:41:23;102045.88;;;20.35;100.00
64340;BME280;63709;53.258;-8.814;2023-06-22T07:43:49;102055.56;;;20.47;100.00
64340;BME280;63709;53.258;-8.814;2023-06-22T07:46:15;102044.72;;;20.47;100.00
64340;BME280;63709;53.258;-8.814;2023-06-22T07:48:41;102024.00;;;20.46;100.00
64340;BME280;63709;53.258;-8.814;2023-06-22T07:51:13;102029.69;;;20.63;100.00
64340;BME280;63709;53.258;-8.814;2023-06-22T07:53:43;102039.72;;;20.52;100.00
64340;BME280;63709;53.258;-8.814;2023-06-22T07:56:13;102034.59;;;20.77;100.00
64340;BME280;63709;53.258;-8.814;2023-06-22T07:58:41;102037.69;;;20.82;100.00
64340;BME280;63709;53.258;-8.814;2023-06-22T08:01:06;102033.63;;;20.96;100.00
64340;BME280;63709;53.258;-8.814;2023-06-22T08:03:33;102035.88;;;21.00;100.00
64340;BME280;63709;53.258;-8.814;2023-06-22T08:06:00;102041.75;;;20.96;100.00
64340;BME280;63709;53.258;-8.814;2023-06-22T08:08:25;102027.25;;;21.05;100.00
64340;BME280;63709;53.258;-8.814;2023-06-22T08:10:51;102033.16;;;21.18;100.00
64340;BME280;63709;53.258;-8.814;2023-06-22T08:13:17;102015.16;;;20.99;100.00
64340;BME280;63709;53.258;-8.814;2023-06-22T08:15:44;102025.16;;;21.17;100.00
64340;BME280;63709;53.258;-8.814;2023-06-22T08:18:11;102012.44;;;20.99;100.00
64340;BME280;63709;53.258;-8.814;2023-06-22T08:20:37;102018.81;;;21.08;100.00
64340;BME280;63709;53.258;-8.814;2023-06-22T08:23:04;102022.78;;;21.14;100.00
64340;BME280;63709;53.258;-8.814;2023-06-22T08:25:31;102015.84;;;21.19;100.00
64340;BME280;63709;53.258;-8.814;2023-06-22T08:27:58;102021.66;;;21.24;100.00
64340;BME280;63709;53.258;-8.814;2023-06-22T08:30:24;102018.50;;;21.29;100.00
64340;BME280;63709;53.258;-8.814;2023-06-22T08:32:51;102015.94;;;21.45;100.00
64340;BME280;63709;53.258;-8.814;2023-06-22T08:35:18;102017.03;;;21.53;100.00
64340;BME280;63709;53.258;-8.814;2023-06-22T08:37:43;102019.31;;;21.65;100.00
64340;BME280;63709;53.258;-8.814;2023-06-22T08:40:17;102013.16;;;21.55;100.00
64340;BME280;63709;53.258;-8.814;2023-06-22T08:42:43;101997.91;;;21.62;100.00
64340;BME280;63709;53.258;-8.814;2023-06-22T08:45:09;101997.91;;;21.62;100.00
64340;BME280;63709;53.258;-8.814;2023-06-22T08:47:36;102003.34;;;21.62;100.00
64340;BME280;63709;53.258;-8.814;2023-06-22T08:50:02;101995.34;;;21.61;100.00
64340;BME280;63709;53.258;-8.814;2023-06-22T08:52:33;102009.41;;;21.56;100.00
64340;BME280;63709;53.258;-8.814;2023-06-22T08:54:58;102008.31;;;21.67;100.00
64340;BME280;63709;53.258;-8.814;2023-06-22T08:57:25;102003.44;;;21.53;100.00
64340;BME280;63709;53.258;-8.814;2023-06-22T08:59:50;101993.66;;;21.60;100.00
64340;BME280;63709;53.258;-8.814;2023-06-22T09:02:18;102011.72;;;21.69;100.00
64340;BME280;63709;53.258;-8.814;2023-06-22T09:04:47;102014.41;;;21.69;100.00
64340;BME280;63709;53.258;-8.814;2023-06-22T09:07:14;102006.50;;;21.75;100.00
64340;BME280;63709;53.258;-8.814;2023-06-22T09:09:39;102007.72;;;21.81;100.00
64340;BME280;63709;53.258;-8.814;2023-06-22T09:12:06;102001.97;;;21.84;100.00
64340;BME280;63709;53.258;-8.814;2023-06-22T09:14:32;102000.78;;;21.87;100.00
64340;BME280;63709;53.258;-8.814;2023-06-22T09:16:57;102002.16;;;21.91;100.00
64340;BME280;63709;53.258;-8.814;2023-06-22T09:19:23;102009.38;;;22.00;100.00
64340;BME280;63709;53.258;-8.814;2023-06-22T09:21:49;102020.13;;;22.10;100.00
64340;BME280;63709;53.258;-8.814;2023-06-22T09:24:15;102015.31;;;21.95;100.00
64340;BME280;63709;53.258;-8.814;2023-06-22T09:26:41;102008.28;;;21.85;100.00
64340;BME280;63709;53.258;-8.814;2023-06-22T09:29:07;102019.56;;;21.98;100.00
64340;BME280;63709;53.258;-8.814;2023-06-22T09:31:32;102023.88;;;22.09;100.00
64340;BME280;63709;53.258;-8.814;2023-06-22T09:33:59;102014.63;;;22.19;100.00
64340;BME280;63709;53.258;-8.814;2023-06-22T09:36:24;102016.03;;;22.32;100.00
64340;BME280;63709;53.258;-8.814;2023-06-22T09:38:53;102000.97;;;22.45;100.00
64340;BME280;63709;53.258;-8.814;2023-06-22T09:41:24;102020.78;;;22.72;100.00
64340;BME280;63709;53.258;-8.814;2023-06-22T09:43:51;102023.31;;;22.65;100.00
64340;BME280;63709;53.258;-8.814;2023-06-22T09:46:17;102023.38;;;22.90;100.00
64340;BME280;63709;53.258;-8.814;2023-06-22T09:48:49;102024.78;;;23.02;100.00
64340;BME280;63709;53.258;-8.814;2023-06-22T09:51:15;102022.78;;;23.12;100.00
64340;BME280;63709;53.258;-8.814;2023-06-22T09:53:44;102026.53;;;23.19;100.00
64340;BME280;63709;53.258;-8.814;2023-06-22T09:56:10;102030.09;;;23.20;100.00
64340;BME280;63709;53.258;-8.814;2023-06-22T09:58:48;102019.22;;;23.20;100.00
64340;BME280;63709;53.258;-8.814;2023-06-22T10:01:15;102026.88;;;23.49;100.00
64340;BME280;63709;53.258;-8.814;2023-06-22T10:03:43;102019.72;;;23.64;100.00
64340;BME280;63709;53.258;-8.814;2023-06-22T10:06:09;102021.59;;;23.80;100.00
64340;BME280;63709;53.258;-8.814;2023-06-22T10:08:35;102022.56;;;24.12;100.00
64340;BME280;63709;53.258;-8.814;2023-06-22T10:11:01;102018.41;;;24.41;100.00
64340;BME280;63709;53.258;-8.814;2023-06-22T10:13:27;102024.56;;;25.05;100.00
64340;BME280;63709;53.258;-8.814;2023-06-22T10:15:54;102011.03;;;25.34;100.00
64340;BME280;63709;53.258;-8.814;2023-06-22T10:18:20;102000.25;;;25.56;100.00
64340;BME280;63709;53.258;-8.814;2023-06-22T10:20:48;102023.94;;;26.16;100.00
64340;BME280;63709;53.258;-8.814;2023-06-22T10:23:21;102027.38;;;26.48;100.00
64340;BME280;63709;53.258;-8.814;2023-06-22T10:25:47;102013.88;;;26.83;100.00
64340;BME280;63709;53.258;-8.814;2023-06-22T10:28:12;102010.69;;;27.15;100.00
64340;BME280;63709;53.258;-8.814;2023-06-22T10:30:41;102008.31;;;27.34;100.00
64340;BME280;63709;53.258;-8.814;2023-06-22T10:33:10;102004.25;;;27.51;100.00
64340;BME280;63709;53.258;-8.814;2023-06-22T10:35:37;102006.69;;;27.89;99.37
64340;BME280;63709;53.258;-8.814;2023-06-22T10:38:08;101997.28;;;28.05;98.53
64340;BME280;63709;53.258;-8.814;2023-06-22T10:40:34;101992.88;;;28.10;94.35
64340;BME280;63709;53.258;-8.814;2023-06-22T10:42:59;101993.59;;;28.26;86.24
64340;BME280;63709;53.258;-8.814;2023-06-22T10:45:28;102004.78;;;28.24;83.44
64340;BME280;63709;53.258;-8.814;2023-06-22T10:47:55;101990.69;;;28.34;87.78
64340;BME280;63709;53.258;-8.814;2023-06-22T10:50:21;102002.88;;;28.66;87.00
64340;BME280;63709;53.258;-8.814;2023-06-22T10:52:49;101974.81;;;28.84;83.13
64340;BME280;63709;53.258;-8.814;2023-06-22T10:55:15;102002.38;;;29.10;81.05
64340;BME280;63709;53.258;-8.814;2023-06-22T10:57:40;102004.09;;;29.25;77.19
64340;BME280;63709;53.258;-8.814;2023-06-22T11:00:11;101995.22;;;29.36;80.42
64340;BME280;63709;53.258;-8.814;2023-06-22T11:02:37;102006.25;;;29.76;79.76
64340;BME280;63709;53.258;-8.814;2023-06-22T11:05:03;101997.09;;;29.95;76.35
64340;BME280;63709;53.258;-8.814;2023-06-22T11:07:29;102009.97;;;30.21;72.07
64340;BME280;63709;53.258;-8.814;2023-06-22T11:09:55;101989.91;;;30.01;73.49
64340;BME280;63709;53.258;-8.814;2023-06-22T11:12:20;102003.69;;;29.87;74.28
64340;BME280;63709;53.258;-8.814;2023-06-22T11:14:50;102007.06;;;29.89;74.61
64340;BME280;63709;53.258;-8.814;2023-06-22T11:17:18;101991.16;;;29.98;73.50
64340;BME280;63709;53.258;-8.814;2023-06-22T11:19:44;101997.75;;;29.84;71.19
64340;BME280;63709;53.258;-8.814;2023-06-22T11:22:12;101981.47;;;29.62;68.41
64340;BME280;63709;53.258;-8.814;2023-06-22T11:24:38;101982.91;;;29.05;72.74
64340;BME280;63709;53.258;-8.814;2023-06-22T11:27:04;101977.34;;;28.79;71.97
64340;BME280;63709;53.258;-8.814;2023-06-22T11:29:29;101966.53;;;28.70;66.39
64340;BME280;63709;53.258;-8.814;2023-06-22T11:32:00;101979.88;;;28.87;72.26
64340;BME280;63709;53.258;-8.814;2023-06-22T11:34:27;101977.63;;;29.10;72.58
64340;BME280;63709;53.258;-8.814;2023-06-22T11:36:53;101972.78;;;29.32;74.39
64340;BME280;63709;53.258;-8.814;2023-06-22T11:39:19;101972.38;;;29.42;70.41
64340;BME280;63709;53.258;-8.814;2023-06-22T11:41:45;101972.97;;;29.51;62.78
64340;BME280;63709;53.258;-8.814;2023-06-22T11:44:11;101973.63;;;29.26;64.62
64340;BME280;63709;53.258;-8.814;2023-06-22T11:46:37;101969.38;;;29.17;61.44
64340;BME280;63709;53.258;-8.814;2023-06-22T11:49:03;101960.50;;;29.22;65.19
64340;BME280;63709;53.258;-8.814;2023-06-22T11:51:31;101966.66;;;29.30;67.52
64340;BME280;63709;53.258;-8.814;2023-06-22T11:53:59;101951.41;;;29.41;65.81
64340;BME280;63709;53.258;-8.814;2023-06-22T11:56:25;101974.69;;;29.65;63.94
64340;BME280;63709;53.258;-8.814;2023-06-22T11:58:52;101974.28;;;29.61;63.20
64340;BME280;63709;53.258;-8.814;2023-06-22T12:01:20;101974.94;;;29.63;61.77
64340;BME280;63709;53.258;-8.814;2023-06-22T12:03:47;101956.69;;;29.49;62.02
64340;BME280;63709;53.258;-8.814;2023-06-22T12:06:13;101969.63;;;29.62;61.08
64340;BME280;63709;53.258;-8.814;2023-06-22T12:08:39;101975.53;;;29.59;65.87
64340;BME280;63709;53.258;-8.814;2023-06-22T12:11:06;101968.34;;;29.58;65.60
64340;BME280;63709;53.258;-8.814;2023-06-22T12:13:31;101964.72;;;29.51;65.75
64340;BME280;63709;53.258;-8.814;2023-06-22T12:15:56;101965.81;;;29.30;69.20
64340;BME280;63709;53.258;-8.814;2023-06-22T12:18:22;101959.66;;;29.21;64.31
64340;BME280;63709;53.258;-8.814;2023-06-22T12:20:48;101952.47;;;29.00;61.05
64340;BME280;63709;53.258;-8.814;2023-06-22T12:23:14;101943.78;;;29.03;63.92
64340;BME280;63709;53.258;-8.814;2023-06-22T12:25:40;101941.03;;;29.16;68.43
64340;BME280;63709;53.258;-8.814;2023-06-22T12:28:06;101944.41;;;29.32;65.68
64340;BME280;63709;53.258;-8.814;2023-06-22T12:30:34;101945.03;;;29.40;62.48
64340;BME280;63709;53.258;-8.814;2023-06-22T12:33:01;101929.81;;;29.31;62.06
64340;BME280;63709;53.258;-8.814;2023-06-22T12:35:26;101933.44;;;29.18;61.90
64340;BME280;63709;53.258;-8.814;2023-06-22T12:37:52;101930.69;;;29.18;61.55
64340;BME280;63709;53.258;-8.814;2023-06-22T12:40:18;101922.84;;;29.15;65.95